createdAt,value
2023-04-11T00:01:57.574Z,8.04
2023-04-11T00:04:25.695Z,8.02
2023-04-11T00:06:52.601Z,7.85
2023-04-11T00:09:19.582Z,8.08
2023-04-11T00:11:46.420Z,7.86
2023-04-11T00:14:13.354Z,7.84
2023-04-11T00:16:41.637Z,7.80
2023-04-11T00:19:09.645Z,7.83
2023-04-11T00:21:40.282Z,8.03
2023-04-11T00:24:08.449Z,7.90
2023-04-11T00:26:35.627Z,8.02
2023-04-11T00:29:02.398Z,7.67
2023-04-11T00:31:29.265Z,7.40
2023-04-11T00:33:56.026Z,7.34
2023-04-11T00:36:22.920Z,7.18
2023-04-11T00:38:49.784Z,6.88
2023-04-11T00:41:16.528Z,7.29
2023-04-11T00:43:43.413Z,7.35
2023-04-11T00:46:10.685Z,7.30
2023-04-11T00:48:37.681Z,7.65
2023-04-11T00:51:04.562Z,7.42
2023-04-11T00:53:33.022Z,7.70
2023-04-11T00:56:00.764Z,7.58
2023-04-11T00:58:28.676Z,7.69
2023-04-11T01:00:55.963Z,7.72
2023-04-11T01:03:23.047Z,7.54
2023-04-11T01:05:52.504Z,7.44
2023-04-11T01:08:20.901Z,7.66
2023-04-11T01:10:48.080Z,7.39
2023-04-11T01:13:15.542Z,7.38
2023-04-11T01:15:42.453Z,7.32
2023-04-11T01:18:09.667Z,7.51
2023-04-11T01:20:38.541Z,7.57
2023-04-11T01:23:06.528Z,7.43
2023-04-11T01:25:33.319Z,7.79
2023-04-11T01:28:00.158Z,7.47
2023-04-11T01:30:26.911Z,7.50
2023-04-11T01:32:53.890Z,7.63
2023-04-11T01:35:20.892Z,7.49
2023-04-11T01:37:47.676Z,7.49
2023-04-11T01:40:18.769Z,7.54
2023-04-11T01:42:47.028Z,7.55
2023-04-11T01:45:14.285Z,7.46
2023-04-11T01:47:41.172Z,7.67
2023-04-11T01:50:08.475Z,7.51
2023-04-11T01:52:35.249Z,7.45
2023-04-11T01:55:02.294Z,7.42
2023-04-11T01:57:29.103Z,7.76
2023-04-11T01:59:55.837Z,7.78
2023-04-11T02:02:22.744Z,7.68
2023-04-11T02:04:49.636Z,7.30
2023-04-11T02:07:16.390Z,7.59
2023-04-11T02:09:43.107Z,7.70
2023-04-11T02:12:09.946Z,7.77
2023-04-11T02:14:45.396Z,7.87
2023-04-11T02:17:13.164Z,7.66
2023-04-11T02:19:41.378Z,7.77
2023-04-11T02:22:11.376Z,7.71
2023-04-11T02:24:38.793Z,7.42
2023-04-11T02:27:05.504Z,7.38
2023-04-11T02:29:32.627Z,7.45
2023-04-11T02:31:59.587Z,7.48
2023-04-11T02:34:26.759Z,7.64
2023-04-11T02:36:53.660Z,7.51
2023-04-11T02:39:26.834Z,7.62
2023-04-11T02:41:53.524Z,7.43
2023-04-11T02:44:20.463Z,7.04
2023-04-11T02:46:47.311Z,7.18
2023-04-11T02:49:14.076Z,6.98
2023-04-11T02:51:41.160Z,7.11
2023-04-11T02:54:08.420Z,7.41
2023-04-11T02:56:37.980Z,7.07
2023-04-11T02:59:07.080Z,7.02
2023-04-11T03:01:34.420Z,6.80
2023-04-11T03:04:01.307Z,7.27
2023-04-11T03:06:28.321Z,6.81
2023-04-11T03:08:56.205Z,7.12
2023-04-11T03:11:23.342Z,7.02
2023-04-11T03:13:50.062Z,6.58
2023-04-11T03:16:16.856Z,6.61
2023-04-11T03:18:43.631Z,6.66
2023-04-11T03:21:11.627Z,7.06
2023-04-11T03:23:38.975Z,6.87
2023-04-11T03:26:06.653Z,6.77
2023-04-11T03:28:33.748Z,6.90
2023-04-11T03:31:00.695Z,6.62
2023-04-11T03:33:27.553Z,6.42
2023-04-11T03:35:54.438Z,6.32
2023-04-11T03:38:21.431Z,6.05
2023-04-11T03:40:48.364Z,6.35
2023-04-11T03:43:16.977Z,6.40
2023-04-11T03:45:43.924Z,6.61
2023-04-11T03:48:10.698Z,6.47
2023-04-11T03:50:37.594Z,6.45
2023-04-11T03:53:04.571Z,6.19
2023-04-11T03:55:31.659Z,6.46
2023-04-11T03:57:58.365Z,6.29
2023-04-11T04:00:25.137Z,6.34
2023-04-11T04:02:52.039Z,6.25
2023-04-11T04:05:19.059Z,6.10
2023-04-11T04:07:46.042Z,6.27
2023-04-11T04:10:12.891Z,6.18
2023-04-11T04:12:40.116Z,6.05
2023-04-11T04:15:07.371Z,6.20
2023-04-11T04:17:34.090Z,6.11
2023-04-11T04:20:01.086Z,6.30
2023-04-11T04:22:29.919Z,6.22
2023-04-11T04:24:58.334Z,5.96
2023-04-11T04:27:32.599Z,6.14
2023-04-11T04:30:04.206Z,6.11
2023-04-11T04:32:31.502Z,5.88
2023-04-11T04:34:58.800Z,6.16
2023-04-11T04:37:27.427Z,6.40
2023-04-11T04:39:55.636Z,6.18
2023-04-11T04:42:27.658Z,6.41
2023-04-11T04:44:56.255Z,6.12
2023-04-11T04:47:24.861Z,6.19
2023-04-11T04:49:57.389Z,6.00
2023-04-11T04:52:25.851Z,6.37
2023-04-11T04:54:53.393Z,6.26
2023-04-11T04:57:20.132Z,6.38
2023-04-11T04:59:47.263Z,6.07
2023-04-11T05:02:14.000Z,6.17
2023-04-11T05:04:42.178Z,5.75
2023-04-11T05:07:08.994Z,5.52
2023-04-11T05:09:35.788Z,5.86
2023-04-11T05:12:02.727Z,5.62
2023-04-11T05:14:29.424Z,5.48
2023-04-11T05:16:56.167Z,5.66
2023-04-11T05:19:22.966Z,5.37
2023-04-11T05:21:49.680Z,5.43
2023-04-11T05:24:16.688Z,5.26
2023-04-11T05:26:43.613Z,5.59
2023-04-11T05:29:12.030Z,5.64
2023-04-11T05:31:38.757Z,5.30
2023-04-11T05:34:05.522Z,5.58
2023-04-11T05:36:32.511Z,5.51
2023-04-11T05:38:59.258Z,5.66
2023-04-11T05:41:27.079Z,5.55
2023-04-11T05:43:54.065Z,5.48
2023-04-11T05:46:21.277Z,5.43
2023-04-11T05:48:48.069Z,5.37
2023-04-11T05:51:14.745Z,5.73
2023-04-11T05:53:41.549Z,5.88
2023-04-11T05:56:08.640Z,5.61
2023-04-11T05:58:37.107Z,5.66
2023-04-11T06:01:03.918Z,5.53
2023-04-11T06:03:30.845Z,5.14
2023-04-11T06:05:57.746Z,5.20
2023-04-11T06:08:24.529Z,5.69
2023-04-11T06:10:51.296Z,5.51
2023-04-11T06:13:18.155Z,5.98
2023-04-11T06:15:44.882Z,5.88
2023-04-11T06:18:13.066Z,6.09
2023-04-11T06:20:39.755Z,5.97
2023-04-11T06:23:06.556Z,5.92
2023-04-11T06:25:33.261Z,5.67
2023-04-11T06:27:59.940Z,6.09
2023-04-11T06:30:26.626Z,6.34
2023-04-11T06:32:53.634Z,6.27
2023-04-11T06:35:24.892Z,6.19
2023-04-11T06:37:52.423Z,6.27
2023-04-11T06:40:20.727Z,6.20
2023-04-11T06:42:47.821Z,6.33
2023-04-11T06:45:14.803Z,6.71
2023-04-11T06:47:41.619Z,6.33
2023-04-11T06:50:08.723Z,6.78
2023-04-11T06:52:35.540Z,6.67
2023-04-11T06:55:02.298Z,6.72
2023-04-11T06:57:29.105Z,7.35
2023-04-11T06:59:56.066Z,9.08
2023-04-11T07:02:25.364Z,9.56
2023-04-11T07:04:52.927Z,9.55
2023-04-11T07:07:19.752Z,10.12
2023-04-11T07:09:47.715Z,10.00
2023-04-11T07:12:14.481Z,10.90
2023-04-11T07:14:41.183Z,11.00
2023-04-11T07:17:07.989Z,11.11
2023-04-11T07:19:34.715Z,11.48
2023-04-11T07:22:01.608Z,11.32
2023-04-11T07:24:30.633Z,11.31
2023-04-11T07:27:01.930Z,11.99
2023-04-11T07:29:29.141Z,12.03
2023-04-11T07:31:56.096Z,11.64
2023-04-11T07:34:22.862Z,11.72
2023-04-11T07:36:50.236Z,11.98
2023-04-11T07:39:17.192Z,12.48
2023-04-11T07:41:44.954Z,13.02
2023-04-11T07:44:11.888Z,13.32
2023-04-11T07:46:38.596Z,13.38
2023-04-11T07:49:05.571Z,13.33
2023-04-11T07:51:33.198Z,12.79
2023-04-11T07:54:00.160Z,12.64
2023-04-11T07:56:26.986Z,12.86
2023-04-11T07:58:53.806Z,13.28
2023-04-11T08:01:25.884Z,13.30
2023-04-11T08:03:56.885Z,13.03
2023-04-11T08:06:24.131Z,13.00
2023-04-11T08:08:51.233Z,12.73
2023-04-11T08:11:20.652Z,12.48
2023-04-11T08:13:47.436Z,12.41
2023-04-11T08:16:15.932Z,12.18
2023-04-11T08:18:42.879Z,12.57
2023-04-11T08:21:12.394Z,12.14
2023-04-11T08:23:43.091Z,12.98
2023-04-11T08:26:12.090Z,12.87
2023-04-11T08:28:41.092Z,13.40
2023-04-11T08:31:10.778Z,13.73
2023-04-11T08:37:19.251Z,13.64
2023-04-11T08:39:46.070Z,13.50
2023-04-11T08:42:25.918Z,13.76
2023-04-11T08:45:00.892Z,13.85
2023-04-11T08:47:27.838Z,13.69
2023-04-11T08:49:55.149Z,14.11
2023-04-11T08:52:21.948Z,13.96
2023-04-11T08:54:49.174Z,13.96
2023-04-11T08:57:28.554Z,14.05
2023-04-11T08:59:56.963Z,13.66
2023-04-11T09:02:24.362Z,13.91
2023-04-11T09:04:51.996Z,13.94
2023-04-11T09:07:19.722Z,13.96
2023-04-11T09:09:46.682Z,13.88
2023-04-11T09:12:13.733Z,13.57
2023-04-11T09:14:43.427Z,13.44
2023-04-11T09:17:13.749Z,12.71
2023-04-11T09:19:46.891Z,13.28
2023-04-11T09:22:15.739Z,13.34
2023-04-11T09:24:43.057Z,12.94
2023-04-11T09:27:19.678Z,13.52
2023-04-11T09:29:48.312Z,13.53
2023-04-11T09:32:33.706Z,13.53
2023-04-11T09:35:24.121Z,14.03
2023-04-11T09:37:52.929Z,13.96
2023-04-11T09:40:23.190Z,13.96
2023-04-11T09:43:00.615Z,13.85
2023-04-11T09:45:28.650Z,13.94
2023-04-11T09:47:58.323Z,13.61
2023-04-11T09:50:26.944Z,13.85
2023-04-11T09:52:57.079Z,13.88
2023-04-11T09:55:26.110Z,13.82
2023-04-11T09:57:54.768Z,13.99
2023-04-11T10:00:24.397Z,14.28
2023-04-11T10:02:53.740Z,14.27
2023-04-11T10:05:27.098Z,14.21
2023-04-11T10:08:06.212Z,14.34
2023-04-11T10:10:33.233Z,14.61
2023-04-11T10:13:00.018Z,14.37
2023-04-11T10:15:27.192Z,14.28
2023-04-11T10:18:13.856Z,14.44
2023-04-11T10:20:45.321Z,14.66
2023-04-11T10:23:14.073Z,14.70
2023-04-11T10:25:51.786Z,14.53
2023-04-11T10:28:30.722Z,14.78
2023-04-11T10:31:04.797Z,15.06
2023-04-11T10:33:33.647Z,14.84
2023-04-11T10:36:12.475Z,15.15
2023-04-11T10:38:47.415Z,15.30
2023-04-11T10:41:25.688Z,15.30
2023-04-11T10:43:52.920Z,14.97
2023-04-11T10:46:22.031Z,14.77
2023-04-11T10:49:02.873Z,14.76
2023-04-11T10:51:31.620Z,15.04
2023-04-11T10:54:00.363Z,15.47
2023-04-11T10:56:50.742Z,15.24
2023-04-11T10:59:32.766Z,14.97
2023-04-11T11:02:03.443Z,15.22
2023-04-11T11:04:37.411Z,15.04
2023-04-11T11:07:06.437Z,15.84
2023-04-11T11:09:34.839Z,15.27
2023-04-11T11:12:08.623Z,15.42
2023-04-11T11:14:35.879Z,15.55
2023-04-11T11:17:03.568Z,15.68
2023-04-11T11:19:31.253Z,15.86
2023-04-11T11:22:03.871Z,15.68
2023-04-11T11:24:31.260Z,15.27
2023-04-11T11:26:58.512Z,15.51
2023-04-11T11:29:35.779Z,14.70
2023-04-11T11:32:04.105Z,14.91
2023-04-11T11:34:35.257Z,14.98
2023-04-11T11:37:06.694Z,14.58
2023-04-11T11:39:34.800Z,14.85
2023-04-11T11:42:02.149Z,15.13
2023-04-11T11:44:31.270Z,15.02
2023-04-11T11:47:02.220Z,15.61
2023-04-11T11:49:46.706Z,15.49
2023-04-11T11:52:40.687Z,15.49
2023-04-11T11:55:19.779Z,15.35
2023-04-11T11:57:47.775Z,15.05
2023-04-11T12:00:16.423Z,15.19
2023-04-11T12:02:44.717Z,14.83
2023-04-11T12:05:12.581Z,15.26
2023-04-11T12:07:40.678Z,15.17
2023-04-11T12:10:11.868Z,14.83
2023-04-11T12:12:41.204Z,14.42
2023-04-11T12:15:11.797Z,14.50
2023-04-11T12:17:39.102Z,14.03
2023-04-11T12:20:08.056Z,14.54
2023-04-11T12:22:35.771Z,14.25
2023-04-11T12:25:14.160Z,14.17
2023-04-11T12:27:42.787Z,14.39
2023-04-11T12:30:11.080Z,14.09
2023-04-11T12:32:38.666Z,13.22
2023-04-11T12:35:07.135Z,12.58
2023-04-11T12:37:35.183Z,12.15
2023-04-11T12:40:10.928Z,12.06
2023-04-11T12:42:53.580Z,12.05
2023-04-11T12:45:23.251Z,12.33
2023-04-11T12:47:50.204Z,12.46
2023-04-11T12:50:16.987Z,12.48
2023-04-11T12:52:43.669Z,12.80
2023-04-11T12:55:10.669Z,13.24
2023-04-11T12:57:37.342Z,13.56
2023-04-11T13:00:07.425Z,13.32
2023-04-11T13:02:42.032Z,13.44
2023-04-11T13:05:11.262Z,13.28
2023-04-11T13:07:38.044Z,13.46
2023-04-11T13:10:07.975Z,13.38
2023-04-11T13:12:39.824Z,13.92
2023-04-11T13:15:08.139Z,13.31
2023-04-11T13:17:35.193Z,13.07
2023-04-11T13:20:02.283Z,12.84
2023-04-11T13:22:28.909Z,12.85
2023-04-11T13:24:55.794Z,12.87
2023-04-11T13:27:23.131Z,12.23
2023-04-11T13:29:49.834Z,12.56
2023-04-11T13:32:16.632Z,12.63
2023-04-11T13:34:43.555Z,12.88
2023-04-11T13:37:10.329Z,12.51
2023-04-11T13:39:39.898Z,12.89
2023-04-11T13:42:06.562Z,12.97
2023-04-11T13:44:33.275Z,13.43
2023-04-11T13:47:00.055Z,13.35
2023-04-11T13:49:26.749Z,13.65
2023-04-11T13:51:53.386Z,13.55
2023-04-11T13:54:20.252Z,13.39
2023-04-11T13:56:46.874Z,13.43
2023-04-11T13:59:13.556Z,13.39
2023-04-11T14:04:56.780Z,13.39
2023-04-11T14:07:23.770Z,13.85
2023-04-11T14:09:50.793Z,14.01
2023-04-11T14:12:18.202Z,14.27
2023-04-11T14:14:44.819Z,14.26
2023-04-11T14:17:11.617Z,14.76
2023-04-11T14:19:38.327Z,14.90
2023-04-11T14:22:05.039Z,15.22
2023-04-11T14:24:31.748Z,15.10
2023-04-11T14:26:58.592Z,15.19
2023-04-11T14:29:26.509Z,15.26
2023-04-11T14:31:53.339Z,15.33
2023-04-11T14:34:20.037Z,14.92
2023-04-11T14:36:46.842Z,14.67
2023-04-11T14:39:13.565Z,14.77
2023-04-11T14:41:40.396Z,14.63
2023-04-11T14:44:07.263Z,14.91
2023-04-11T14:46:35.520Z,15.04
2023-04-11T14:49:03.131Z,14.88
2023-04-11T14:51:29.858Z,14.64
2023-04-11T14:53:57.071Z,15.14
2023-04-11T14:56:24.841Z,14.55
2023-04-11T14:58:52.291Z,14.48
2023-04-11T15:01:20.285Z,14.61
2023-04-11T15:03:47.407Z,14.10
2023-04-11T15:06:14.429Z,13.70
2023-04-11T15:08:41.330Z,13.46
2023-04-11T15:11:08.554Z,13.52
2023-04-11T15:13:35.284Z,13.54
2023-04-11T15:16:03.014Z,13.37
2023-04-11T15:18:31.119Z,12.99
2023-04-11T15:20:59.396Z,13.00
2023-04-11T15:23:26.634Z,13.35
2023-04-11T15:25:54.542Z,13.32
2023-04-11T15:28:22.324Z,13.19
2023-04-11T15:30:56.840Z,13.13
2023-04-11T15:33:24.418Z,13.23
2023-04-11T15:35:53.838Z,12.70
2023-04-11T15:38:21.458Z,12.39
2023-04-11T15:40:56.681Z,12.76
2023-04-11T15:43:24.053Z,12.38
2023-04-11T15:45:52.484Z,12.70
2023-04-11T15:48:19.208Z,12.37
2023-04-11T15:50:46.039Z,12.56
2023-04-11T15:53:12.897Z,12.08
2023-04-11T15:55:41.442Z,12.65
2023-04-11T15:58:08.673Z,12.78
2023-04-11T16:00:39.788Z,12.17
2023-04-11T16:03:08.743Z,11.90
2023-04-11T16:05:41.001Z,12.25
2023-04-11T16:08:07.974Z,12.04
2023-04-11T16:10:35.115Z,11.95
2023-04-11T16:13:02.562Z,11.36
2023-04-11T16:15:29.278Z,11.59
2023-04-11T16:17:56.115Z,11.85
2023-04-11T16:20:23.014Z,11.46
2023-04-11T16:22:49.712Z,11.04
2023-04-11T16:25:19.511Z,11.19
2023-04-11T16:27:46.456Z,11.46
2023-04-11T16:30:13.396Z,11.27
2023-04-11T16:32:40.094Z,11.71
2023-04-11T16:35:07.202Z,11.40
2023-04-11T16:37:33.954Z,11.21
2023-04-11T16:40:01.032Z,11.06
2023-04-11T16:42:27.762Z,11.24
2023-04-11T16:44:54.440Z,10.83
2023-04-11T16:47:26.326Z,10.95
2023-04-11T16:49:53.600Z,11.27
2023-04-11T16:52:21.230Z,11.04
2023-04-11T16:54:48.059Z,11.43
2023-04-11T16:57:14.705Z,11.21
2023-04-11T16:59:41.464Z,10.96
2023-04-11T17:02:08.166Z,11.04
2023-04-11T17:04:35.306Z,10.83
2023-04-11T17:07:02.118Z,11.01
2023-04-11T17:09:29.788Z,10.98
2023-04-11T17:11:57.810Z,11.21
2023-04-11T17:14:24.723Z,10.92
2023-04-11T17:16:51.714Z,10.73
2023-04-11T17:19:18.421Z,10.73
2023-04-11T17:21:45.104Z,10.62
2023-04-11T17:24:11.929Z,10.94
2023-04-11T17:26:38.631Z,10.72
2023-04-11T17:29:06.630Z,10.39
2023-04-11T17:31:34.097Z,10.45
2023-04-11T17:34:00.829Z,10.03
2023-04-11T17:36:28.450Z,9.89
2023-04-11T17:38:55.165Z,10.18
2023-04-11T17:41:23.008Z,9.88
2023-04-11T17:43:49.720Z,9.67
2023-04-11T17:46:16.424Z,9.53
2023-04-11T17:48:43.328Z,9.64
2023-04-11T17:51:10.019Z,9.83
2023-04-11T17:53:37.098Z,10.11
2023-04-11T17:56:06.077Z,9.99
2023-04-11T17:58:33.099Z,9.61
2023-04-11T18:00:59.850Z,9.77
2023-04-11T18:03:26.702Z,9.34
2023-04-11T18:05:54.630Z,9.52
2023-04-11T18:08:28.713Z,9.68
2023-04-11T18:11:00.436Z,9.10
2023-04-11T18:13:27.655Z,9.34
2023-04-11T18:15:54.593Z,9.37
2023-04-11T18:18:21.374Z,9.18
2023-04-11T18:20:48.529Z,9.03
2023-04-11T18:23:15.388Z,8.84
2023-04-11T18:25:42.152Z,9.19
2023-04-11T18:28:08.922Z,8.69
2023-04-11T18:30:35.723Z,8.69
2023-04-11T18:33:02.512Z,8.47
2023-04-11T18:35:29.249Z,8.84
2023-04-11T18:37:56.053Z,8.76
2023-04-11T18:40:22.917Z,8.48
2023-04-11T18:42:53.276Z,8.89
2023-04-11T18:45:22.019Z,8.60
2023-04-11T18:47:49.171Z,8.40
2023-04-11T18:50:17.912Z,8.60
2023-04-11T18:52:45.863Z,8.67
2023-04-11T18:55:14.315Z,8.54
2023-04-11T18:57:42.227Z,8.31
2023-04-11T19:00:18.905Z,8.45
2023-04-11T19:02:47.154Z,8.46
2023-04-11T19:05:14.628Z,8.60
2023-04-11T19:07:42.875Z,8.97
2023-04-11T19:10:11.293Z,8.63
2023-04-11T19:12:38.254Z,8.44
2023-04-11T19:15:09.356Z,8.87
2023-04-11T19:17:38.500Z,8.79
2023-04-11T19:20:13.399Z,8.79
2023-04-11T19:22:43.146Z,8.86
2023-04-11T19:25:11.444Z,8.82
2023-04-11T19:27:40.464Z,8.57
2023-04-11T19:30:08.884Z,8.61
2023-04-11T19:32:38.695Z,8.61
2023-04-11T19:35:08.880Z,8.67
2023-04-11T19:37:36.407Z,8.72
2023-04-11T19:40:07.345Z,8.96
2023-04-11T19:42:37.023Z,8.74
2023-04-11T19:45:04.870Z,8.32
2023-04-11T19:47:32.260Z,8.24
2023-04-11T19:50:01.112Z,8.15
2023-04-11T19:52:28.802Z,7.94
2023-04-11T19:54:56.992Z,8.40
2023-04-11T19:57:26.567Z,8.34
2023-04-11T19:59:53.386Z,7.98
2023-04-11T20:02:21.298Z,7.98
2023-04-11T20:04:48.258Z,8.42
2023-04-11T20:07:15.869Z,8.48
2023-04-11T20:09:42.556Z,8.21
2023-04-11T20:12:09.526Z,8.15
2023-04-11T20:14:38.097Z,8.30
2023-04-11T20:17:06.432Z,8.38
2023-04-11T20:19:33.358Z,8.03
2023-04-11T20:22:01.188Z,7.97
2023-04-11T20:24:28.305Z,8.24
2023-04-11T20:26:57.176Z,8.26
2023-04-11T20:29:24.877Z,8.00
2023-04-11T20:31:51.620Z,8.38
2023-04-11T20:34:18.311Z,8.32
2023-04-11T20:36:45.100Z,8.46
2023-04-11T20:39:11.863Z,8.40
2023-04-11T20:41:40.633Z,8.36
2023-04-11T20:44:07.436Z,8.58
2023-04-11T20:46:39.621Z,8.56
2023-04-11T20:49:07.211Z,8.36
2023-04-11T20:51:34.733Z,8.76
2023-04-11T20:54:01.529Z,8.42
2023-04-11T20:56:28.499Z,8.39
2023-04-11T20:58:55.170Z,8.43
2023-04-11T21:01:22.697Z,8.25
2023-04-11T21:03:51.512Z,8.32
2023-04-11T21:06:18.326Z,8.23
2023-04-11T21:08:45.056Z,8.44
2023-04-11T21:11:11.750Z,8.47
2023-04-11T21:13:38.420Z,8.33
2023-04-11T21:16:05.730Z,8.06
2023-04-11T21:18:32.554Z,7.82
2023-04-11T21:20:59.345Z,7.74
2023-04-11T21:23:26.044Z,7.98
2023-04-11T21:25:52.732Z,7.83
2023-04-11T21:28:19.604Z,7.92
2023-04-11T21:30:46.436Z,7.99
2023-04-11T21:33:13.208Z,7.45
2023-04-11T21:35:39.914Z,7.91
2023-04-11T21:38:06.694Z,7.61
2023-04-11T21:40:33.393Z,7.54
2023-04-11T21:43:00.524Z,7.71
2023-04-11T21:45:27.608Z,7.52
2023-04-11T21:47:54.567Z,7.39
2023-04-11T21:50:21.324Z,7.18
2023-04-11T21:52:48.130Z,7.21
2023-04-11T21:55:15.593Z,7.14
2023-04-11T21:57:42.346Z,7.02
2023-04-11T22:00:11.161Z,7.16
2023-04-11T22:02:38.876Z,7.26
2023-04-11T22:05:08.886Z,6.94
2023-04-11T22:07:48.703Z,7.07
2023-04-11T22:10:22.522Z,6.84
2023-04-11T22:12:50.014Z,6.75
2023-04-11T22:15:18.453Z,6.83
2023-04-11T22:17:50.630Z,7.08
2023-04-11T22:20:18.440Z,6.87
2023-04-11T22:22:45.390Z,7.16
2023-04-11T22:25:12.163Z,7.19
2023-04-11T22:27:38.968Z,7.02
2023-04-11T22:30:07.041Z,7.08
2023-04-11T22:32:34.140Z,7.14
2023-04-11T22:35:01.338Z,6.80
2023-04-11T22:37:28.107Z,6.71
2023-04-11T22:39:55.173Z,6.62
2023-04-11T22:42:21.954Z,6.64
2023-04-11T22:44:48.667Z,6.43
2023-04-11T22:47:16.631Z,6.76
2023-04-11T22:49:44.992Z,6.42
2023-04-11T22:52:15.758Z,6.57
2023-04-11T22:54:43.203Z,6.67
2023-04-11T22:57:10.472Z,7.03
2023-04-11T22:59:37.237Z,6.78
2023-04-11T23:02:04.108Z,6.79
2023-04-11T23:04:32.139Z,6.64
2023-04-11T23:07:00.186Z,6.71
2023-04-11T23:09:28.206Z,6.52
2023-04-11T23:11:55.016Z,6.80
2023-04-11T23:14:22.520Z,6.55
2023-04-11T23:16:49.449Z,6.47
2023-04-11T23:19:17.236Z,6.62
2023-04-11T23:21:44.727Z,6.70
2023-04-11T23:24:11.421Z,6.99
2023-04-11T23:26:38.128Z,6.62
2023-04-11T23:29:04.825Z,6.60
2023-04-11T23:31:32.697Z,6.62
2023-04-11T23:34:00.758Z,6.93
2023-04-11T23:36:28.024Z,6.75
2023-04-11T23:38:54.964Z,6.72
2023-04-11T23:41:21.754Z,6.73
2023-04-11T23:43:48.505Z,6.52
2023-04-11T23:46:16.899Z,6.83
2023-04-11T23:48:44.358Z,6.72
2023-04-11T23:51:11.073Z,6.80
2023-04-11T23:53:37.735Z,6.65
2023-04-11T23:56:04.866Z,6.75
2023-04-11T23:58:31.604Z,6.56
